sensor_id;sensor_type;location;lat;lon;timestamp;P1;durP1;ratioP1;P2;durP2;ratioP2
11439;SDS011;5776;51.814;4.510;2023-06-22T00:01:28;4.55;;;3.08;;
11439;SDS011;5776;51.814;4.510;2023-06-22T00:03:54;5.18;;;3.38;;
11439;SDS011;5776;51.814;4.510;2023-06-22T00:06:20;7.20;;;3.88;;
11439;SDS011;5776;51.814;4.510;2023-06-22T00:08:46;6.97;;;4.22;;
11439;SDS011;5776;51.814;4.510;2023-06-22T00:11:12;5.78;;;4.28;;
11439;SDS011;5776;51.814;4.510;2023-06-22T00:13:38;4.82;;;4.03;;
11439;SDS011;5776;51.814;4.510;2023-06-22T00:16:05;5.18;;;3.63;;
11439;SDS011;5776;51.814;4.510;2023-06-22T00:18:31;6.57;;;3.88;;
11439;SDS011;5776;51.814;4.510;2023-06-22T00:20:56;7.20;;;3.83;;
11439;SDS011;5776;51.814;4.510;2023-06-22T00:23:23;6.82;;;4.13;;
11439;SDS011;5776;51.814;4.510;2023-06-22T00:25:50;7.03;;;4.68;;
11439;SDS011;5776;51.814;4.510;2023-06-22T00:28:16;7.53;;;4.70;;
11439;SDS011;5776;51.814;4.510;2023-06-22T00:30:42;8.15;;;5.22;;
11439;SDS011;5776;51.814;4.510;2023-06-22T00:33:08;12.35;;;5.25;;
11439;SDS011;5776;51.814;4.510;2023-06-22T00:35:34;8.60;;;5.38;;
11439;SDS011;5776;51.814;4.510;2023-06-22T00:38:00;8.40;;;5.03;;
11439;SDS011;5776;51.814;4.510;2023-06-22T00:40:27;7.97;;;4.18;;
11439;SDS011;5776;51.814;4.510;2023-06-22T00:42:54;8.55;;;4.32;;
11439;SDS011;5776;51.814;4.510;2023-06-22T00:45:21;8.85;;;4.82;;
11439;SDS011;5776;51.814;4.510;2023-06-22T00:47:49;8.13;;;4.95;;
11439;SDS011;5776;51.814;4.510;2023-06-22T00:50:20;7.10;;;4.50;;
11439;SDS011;5776;51.814;4.510;2023-06-22T00:52:49;6.53;;;3.42;;
11439;SDS011;5776;51.814;4.510;2023-06-22T00:55:18;7.38;;;5.00;;
11439;SDS011;5776;51.814;4.510;2023-06-22T00:57:46;5.97;;;4.07;;
11439;SDS011;5776;51.814;4.510;2023-06-22T01:00:14;6.88;;;4.13;;
11439;SDS011;5776;51.814;4.510;2023-06-22T01:02:43;6.82;;;5.13;;
11439;SDS011;5776;51.814;4.510;2023-06-22T01:05:15;7.07;;;4.80;;
11439;SDS011;5776;51.814;4.510;2023-06-22T01:07:46;10.05;;;5.45;;
11439;SDS011;5776;51.814;4.510;2023-06-22T01:12:52;9.80;;;5.75;;
11439;SDS011;5776;51.814;4.510;2023-06-22T01:15:25;9.48;;;5.18;;
11439;SDS011;5776;51.814;4.510;2023-06-22T01:17:57;6.82;;;3.92;;
11439;SDS011;5776;51.814;4.510;2023-06-22T01:20:25;8.45;;;4.80;;
11439;SDS011;5776;51.814;4.510;2023-06-22T01:31:07;10.55;;;5.43;;
11439;SDS011;5776;51.814;4.510;2023-06-22T01:33:35;6.30;;;4.22;;
11439;SDS011;5776;51.814;4.510;2023-06-22T01:36:04;7.38;;;4.50;;
11439;SDS011;5776;51.814;4.510;2023-06-22T01:38:32;5.13;;;3.50;;
11439;SDS011;5776;51.814;4.510;2023-06-22T01:41:00;10.73;;;5.50;;
11439;SDS011;5776;51.814;4.510;2023-06-22T01:43:27;6.78;;;4.45;;
11439;SDS011;5776;51.814;4.510;2023-06-22T01:45:54;7.32;;;4.28;;
11439;SDS011;5776;51.814;4.510;2023-06-22T01:48:21;6.93;;;5.07;;
11439;SDS011;5776;51.814;4.510;2023-06-22T01:50:48;7.70;;;5.05;;
11439;SDS011;5776;51.814;4.510;2023-06-22T01:53:15;8.32;;;5.15;;
11439;SDS011;5776;51.814;4.510;2023-06-22T01:55:41;6.80;;;4.65;;
11439;SDS011;5776;51.814;4.510;2023-06-22T01:58:07;6.25;;;4.55;;
11439;SDS011;5776;51.814;4.510;2023-06-22T02:00:33;9.40;;;5.20;;
11439;SDS011;5776;51.814;4.510;2023-06-22T02:03:05;6.45;;;4.80;;
11439;SDS011;5776;51.814;4.510;2023-06-22T02:05:34;5.78;;;3.92;;
11439;SDS011;5776;51.814;4.510;2023-06-22T02:10:41;8.93;;;5.70;;
11439;SDS011;5776;51.814;4.510;2023-06-22T02:13:09;8.38;;;5.53;;
11439;SDS011;5776;51.814;4.510;2023-06-22T02:15:36;10.02;;;5.72;;
11439;SDS011;5776;51.814;4.510;2023-06-22T02:18:02;12.88;;;6.25;;
11439;SDS011;5776;51.814;4.510;2023-06-22T02:20:29;7.72;;;5.47;;
11439;SDS011;5776;51.814;4.510;2023-06-22T02:22:55;10.77;;;6.60;;
11439;SDS011;5776;51.814;4.510;2023-06-22T02:25:20;9.35;;;6.20;;
11439;SDS011;5776;51.814;4.510;2023-06-22T02:27:46;9.40;;;5.97;;
11439;SDS011;5776;51.814;4.510;2023-06-22T02:30:14;7.93;;;5.30;;
11439;SDS011;5776;51.814;4.510;2023-06-22T02:32:41;8.73;;;5.15;;
11439;SDS011;5776;51.814;4.510;2023-06-22T02:35:07;10.02;;;5.45;;
11439;SDS011;5776;51.814;4.510;2023-06-22T02:37:37;7.50;;;5.20;;
11439;SDS011;5776;51.814;4.510;2023-06-22T02:40:07;6.10;;;4.53;;
11439;SDS011;5776;51.814;4.510;2023-06-22T02:42:37;9.40;;;5.60;;
11439;SDS011;5776;51.814;4.510;2023-06-22T02:45:05;10.00;;;6.57;;
11439;SDS011;5776;51.814;4.510;2023-06-22T02:47:31;6.72;;;4.13;;
11439;SDS011;5776;51.814;4.510;2023-06-22T02:49:57;9.63;;;6.00;;
11439;SDS011;5776;51.814;4.510;2023-06-22T02:52:22;9.20;;;6.55;;
11439;SDS011;5776;51.814;4.510;2023-06-22T02:54:48;9.65;;;6.30;;
11439;SDS011;5776;51.814;4.510;2023-06-22T02:57:14;8.15;;;5.13;;
11439;SDS011;5776;51.814;4.510;2023-06-22T02:59:40;6.72;;;4.65;;
11439;SDS011;5776;51.814;4.510;2023-06-22T03:02:07;8.43;;;5.10;;
11439;SDS011;5776;51.814;4.510;2023-06-22T03:04:35;8.43;;;6.38;;
11439;SDS011;5776;51.814;4.510;2023-06-22T03:07:01;10.30;;;6.20;;
11439;SDS011;5776;51.814;4.510;2023-06-22T03:09:28;10.13;;;5.55;;
11439;SDS011;5776;51.814;4.510;2023-06-22T03:11:54;12.55;;;6.22;;
11439;SDS011;5776;51.814;4.510;2023-06-22T03:14:20;11.50;;;6.38;;
11439;SDS011;5776;51.814;4.510;2023-06-22T03:16:46;6.88;;;4.68;;
11439;SDS011;5776;51.814;4.510;2023-06-22T03:19:12;8.60;;;4.72;;
11439;SDS011;5776;51.814;4.510;2023-06-22T03:21:39;9.90;;;6.38;;
11439;SDS011;5776;51.814;4.510;2023-06-22T03:24:06;9.43;;;6.20;;
11439;SDS011;5776;51.814;4.510;2023-06-22T03:26:33;10.10;;;5.90;;
11439;SDS011;5776;51.814;4.510;2023-06-22T03:29:00;8.20;;;5.50;;
11439;SDS011;5776;51.814;4.510;2023-06-22T03:31:25;10.95;;;6.15;;
11439;SDS011;5776;51.814;4.510;2023-06-22T03:33:52;12.50;;;7.43;;
11439;SDS011;5776;51.814;4.510;2023-06-22T03:36:18;15.90;;;7.93;;
11439;SDS011;5776;51.814;4.510;2023-06-22T03:38:45;12.00;;;7.53;;
11439;SDS011;5776;51.814;4.510;2023-06-22T03:41:11;12.18;;;6.40;;
11439;SDS011;5776;51.814;4.510;2023-06-22T03:43:37;9.15;;;5.75;;
11439;SDS011;5776;51.814;4.510;2023-06-22T03:46:03;10.05;;;6.47;;
11439;SDS011;5776;51.814;4.510;2023-06-22T03:48:29;8.82;;;5.68;;
11439;SDS011;5776;51.814;4.510;2023-06-22T03:50:55;10.05;;;6.32;;
11439;SDS011;5776;51.814;4.510;2023-06-22T03:53:21;10.38;;;7.35;;
11439;SDS011;5776;51.814;4.510;2023-06-22T03:55:50;14.25;;;7.50;;
11439;SDS011;5776;51.814;4.510;2023-06-22T03:58:18;12.25;;;7.53;;
11439;SDS011;5776;51.814;4.510;2023-06-22T04:00:45;8.45;;;5.55;;
11439;SDS011;5776;51.814;4.510;2023-06-22T04:03:15;10.75;;;7.03;;
11439;SDS011;5776;51.814;4.510;2023-06-22T04:05:42;12.35;;;8.35;;
11439;SDS011;5776;51.814;4.510;2023-06-22T04:08:08;11.82;;;7.32;;
11439;SDS011;5776;51.814;4.510;2023-06-22T04:10:33;10.93;;;7.30;;
11439;SDS011;5776;51.814;4.510;2023-06-22T04:12:59;11.05;;;7.15;;
11439;SDS011;5776;51.814;4.510;2023-06-22T04:15:26;15.68;;;6.93;;
11439;SDS011;5776;51.814;4.510;2023-06-22T04:17:52;9.45;;;5.97;;
11439;SDS011;5776;51.814;4.510;2023-06-22T04:20:19;9.85;;;6.72;;
11439;SDS011;5776;51.814;4.510;2023-06-22T04:22:45;7.70;;;5.60;;
11439;SDS011;5776;51.814;4.510;2023-06-22T04:25:11;14.57;;;8.48;;
11439;SDS011;5776;51.814;4.510;2023-06-22T04:27:37;10.98;;;7.43;;
11439;SDS011;5776;51.814;4.510;2023-06-22T04:30:06;10.82;;;6.57;;
11439;SDS011;5776;51.814;4.510;2023-06-22T04:32:33;14.05;;;8.73;;
11439;SDS011;5776;51.814;4.510;2023-06-22T04:35:02;12.25;;;7.25;;
11439;SDS011;5776;51.814;4.510;2023-06-22T04:37:30;10.13;;;6.80;;
11439;SDS011;5776;51.814;4.510;2023-06-22T04:39:56;11.65;;;7.50;;
11439;SDS011;5776;51.814;4.510;2023-06-22T04:42:22;12.18;;;6.75;;
11439;SDS011;5776;51.814;4.510;2023-06-22T04:44:48;12.38;;;8.57;;
11439;SDS011;5776;51.814;4.510;2023-06-22T04:47:14;12.38;;;8.27;;
11439;SDS011;5776;51.814;4.510;2023-06-22T04:49:40;13.73;;;7.60;;
11439;SDS011;5776;51.814;4.510;2023-06-22T04:52:09;12.18;;;8.18;;
11439;SDS011;5776;51.814;4.510;2023-06-22T04:54:37;15.07;;;8.00;;
11439;SDS011;5776;51.814;4.510;2023-06-22T04:57:05;13.27;;;7.88;;
11439;SDS011;5776;51.814;4.510;2023-06-22T04:59:35;9.77;;;5.90;;
11439;SDS011;5776;51.814;4.510;2023-06-22T05:02:04;10.80;;;7.00;;
11439;SDS011;5776;51.814;4.510;2023-06-22T05:04:31;13.95;;;8.63;;
11439;SDS011;5776;51.814;4.510;2023-06-22T05:06:57;12.85;;;7.68;;
11439;SDS011;5776;51.814;4.510;2023-06-22T05:09:24;12.93;;;7.25;;
11439;SDS011;5776;51.814;4.510;2023-06-22T05:11:53;12.02;;;7.80;;
11439;SDS011;5776;51.814;4.510;2023-06-22T05:14:19;15.25;;;7.28;;
11439;SDS011;5776;51.814;4.510;2023-06-22T05:16:45;11.48;;;6.82;;
11439;SDS011;5776;51.814;4.510;2023-06-22T05:19:12;14.52;;;8.40;;
11439;SDS011;5776;51.814;4.510;2023-06-22T05:21:38;11.82;;;8.15;;
11439;SDS011;5776;51.814;4.510;2023-06-22T05:24:04;13.18;;;7.90;;
11439;SDS011;5776;51.814;4.510;2023-06-22T05:26:30;10.55;;;7.80;;
11439;SDS011;5776;51.814;4.510;2023-06-22T05:28:58;10.68;;;6.93;;
11439;SDS011;5776;51.814;4.510;2023-06-22T05:31:25;15.15;;;8.27;;
11439;SDS011;5776;51.814;4.510;2023-06-22T05:33:51;13.00;;;7.25;;
11439;SDS011;5776;51.814;4.510;2023-06-22T05:36:19;8.63;;;6.38;;
11439;SDS011;5776;51.814;4.510;2023-06-22T05:38:51;13.60;;;7.93;;
11439;SDS011;5776;51.814;4.510;2023-06-22T05:41:17;9.18;;;6.07;;
11439;SDS011;5776;51.814;4.510;2023-06-22T05:43:43;13.18;;;7.70;;
11439;SDS011;5776;51.814;4.510;2023-06-22T05:46:09;10.13;;;6.30;;
11439;SDS011;5776;51.814;4.510;2023-06-22T05:48:35;8.32;;;5.70;;
11439;SDS011;5776;51.814;4.510;2023-06-22T05:51:01;11.45;;;7.45;;
11439;SDS011;5776;51.814;4.510;2023-06-22T05:53:28;9.27;;;5.72;;
11439;SDS011;5776;51.814;4.510;2023-06-22T05:55:54;10.68;;;6.50;;
11439;SDS011;5776;51.814;4.510;2023-06-22T05:58:20;11.38;;;6.93;;
11439;SDS011;5776;51.814;4.510;2023-06-22T06:00:46;12.40;;;6.93;;
11439;SDS011;5776;51.814;4.510;2023-06-22T06:03:12;10.02;;;6.45;;
11439;SDS011;5776;51.814;4.510;2023-06-22T06:05:38;9.52;;;6.97;;
11439;SDS011;5776;51.814;4.510;2023-06-22T06:08:05;12.02;;;6.60;;
11439;SDS011;5776;51.814;4.510;2023-06-22T06:10:32;12.02;;;6.13;;
11439;SDS011;5776;51.814;4.510;2023-06-22T06:12:59;11.10;;;6.72;;
11439;SDS011;5776;51.814;4.510;2023-06-22T06:15:27;10.35;;;5.80;;
11439;SDS011;5776;51.814;4.510;2023-06-22T06:17:54;9.07;;;5.55;;
11439;SDS011;5776;51.814;4.510;2023-06-22T06:20:20;9.32;;;6.05;;
11439;SDS011;5776;51.814;4.510;2023-06-22T06:22:48;8.45;;;5.40;;
11439;SDS011;5776;51.814;4.510;2023-06-22T06:25:14;7.60;;;4.20;;
11439;SDS011;5776;51.814;4.510;2023-06-22T06:27:46;9.23;;;6.07;;
11439;SDS011;5776;51.814;4.510;2023-06-22T06:30:13;11.23;;;6.20;;
11439;SDS011;5776;51.814;4.510;2023-06-22T06:32:41;7.43;;;5.53;;
11439;SDS011;5776;51.814;4.510;2023-06-22T06:35:11;8.48;;;6.18;;
11439;SDS011;5776;51.814;4.510;2023-06-22T06:37:38;11.25;;;6.63;;
11439;SDS011;5776;51.814;4.510;2023-06-22T06:40:09;12.07;;;5.38;;
11439;SDS011;5776;51.814;4.510;2023-06-22T06:42:40;10.30;;;6.00;;
11439;SDS011;5776;51.814;4.510;2023-06-22T06:45:12;10.05;;;5.95;;
11439;SDS011;5776;51.814;4.510;2023-06-22T06:47:40;8.40;;;5.57;;
11439;SDS011;5776;51.814;4.510;2023-06-22T06:50:07;8.73;;;4.85;;
11439;SDS011;5776;51.814;4.510;2023-06-22T06:52:33;8.40;;;5.10;;
11439;SDS011;5776;51.814;4.510;2023-06-22T06:54:59;9.43;;;4.90;;
11439;SDS011;5776;51.814;4.510;2023-06-22T06:57:25;5.70;;;4.10;;
11439;SDS011;5776;51.814;4.510;2023-06-22T06:59:55;10.70;;;4.80;;
11439;SDS011;5776;51.814;4.510;2023-06-22T07:02:22;7.85;;;4.55;;
11439;SDS011;5776;51.814;4.510;2023-06-22T07:04:48;5.40;;;3.97;;
11439;SDS011;5776;51.814;4.510;2023-06-22T07:07:15;7.43;;;4.82;;
11439;SDS011;5776;51.814;4.510;2023-06-22T07:09:41;10.85;;;4.68;;
11439;SDS011;5776;51.814;4.510;2023-06-22T07:12:07;6.22;;;4.07;;
11439;SDS011;5776;51.814;4.510;2023-06-22T07:14:33;3.90;;;2.67;;
11439;SDS011;5776;51.814;4.510;2023-06-22T07:16:59;5.28;;;2.72;;
11439;SDS011;5776;51.814;4.510;2023-06-22T07:19:25;5.10;;;3.28;;
11439;SDS011;5776;51.814;4.510;2023-06-22T07:21:53;5.70;;;3.45;;
11439;SDS011;5776;51.814;4.510;2023-06-22T07:24:20;4.90;;;3.05;;
11439;SDS011;5776;51.814;4.510;2023-06-22T07:26:49;7.80;;;4.03;;
11439;SDS011;5776;51.814;4.510;2023-06-22T07:29:19;7.07;;;4.00;;
11439;SDS011;5776;51.814;4.510;2023-06-22T07:31:46;6.75;;;3.10;;
11439;SDS011;5776;51.814;4.510;2023-06-22T07:34:13;5.40;;;3.95;;
11439;SDS011;5776;51.814;4.510;2023-06-22T07:36:39;4.65;;;3.33;;
11439;SDS011;5776;51.814;4.510;2023-06-22T07:39:05;6.25;;;3.38;;
11439;SDS011;5776;51.814;4.510;2023-06-22T07:41:32;6.65;;;3.45;;
11439;SDS011;5776;51.814;4.510;2023-06-22T07:43:58;7.68;;;3.65;;
11439;SDS011;5776;51.814;4.510;2023-06-22T07:46:24;4.47;;;3.13;;
11439;SDS011;5776;51.814;4.510;2023-06-22T07:48:49;4.35;;;2.80;;
11439;SDS011;5776;51.814;4.510;2023-06-22T07:51:15;4.72;;;2.38;;
11439;SDS011;5776;51.814;4.510;2023-06-22T07:53:42;3.58;;;2.35;;
11439;SDS011;5776;51.814;4.510;2023-06-22T07:56:12;3.38;;;2.20;;
11439;SDS011;5776;51.814;4.510;2023-06-22T07:58:38;2.95;;;2.22;;
11439;SDS011;5776;51.814;4.510;2023-06-22T08:01:04;2.45;;;1.80;;
11439;SDS011;5776;51.814;4.510;2023-06-22T08:03:31;1.98;;;1.30;;
11439;SDS011;5776;51.814;4.510;2023-06-22T08:05:58;3.75;;;2.33;;
11439;SDS011;5776;51.814;4.510;2023-06-22T08:08:23;2.75;;;1.55;;
11439;SDS011;5776;51.814;4.510;2023-06-22T08:10:50;2.90;;;1.73;;
11439;SDS011;5776;51.814;4.510;2023-06-22T08:13:16;3.00;;;1.60;;
11439;SDS011;5776;51.814;4.510;2023-06-22T08:15:42;2.35;;;1.60;;
11439;SDS011;5776;51.814;4.510;2023-06-22T08:18:08;2.78;;;1.65;;
11439;SDS011;5776;51.814;4.510;2023-06-22T08:20:34;1.88;;;1.23;;
11439;SDS011;5776;51.814;4.510;2023-06-22T08:23:00;3.13;;;1.50;;
11439;SDS011;5776;51.814;4.510;2023-06-22T08:25:30;2.65;;;1.50;;
11439;SDS011;5776;51.814;4.510;2023-06-22T08:27:57;4.30;;;1.73;;
11439;SDS011;5776;51.814;4.510;2023-06-22T08:30:23;5.68;;;2.15;;
11439;SDS011;5776;51.814;4.510;2023-06-22T08:32:49;3.45;;;2.00;;
11439;SDS011;5776;51.814;4.510;2023-06-22T08:35:15;2.75;;;1.88;;
11439;SDS011;5776;51.814;4.510;2023-06-22T08:37:41;4.40;;;2.47;;
11439;SDS011;5776;51.814;4.510;2023-06-22T08:40:08;4.88;;;2.40;;
11439;SDS011;5776;51.814;4.510;2023-06-22T08:42:40;4.00;;;2.70;;
11439;SDS011;5776;51.814;4.510;2023-06-22T08:45:06;2.22;;;1.70;;
11439;SDS011;5776;51.814;4.510;2023-06-22T08:47:33;3.53;;;2.50;;
11439;SDS011;5776;51.814;4.510;2023-06-22T08:49:59;3.90;;;2.58;;
11439;SDS011;5776;51.814;4.510;2023-06-22T08:52:27;4.63;;;3.10;;
11439;SDS011;5776;51.814;4.510;2023-06-22T08:54:53;3.63;;;2.60;;
11439;SDS011;5776;51.814;4.510;2023-06-22T08:57:20;4.53;;;2.88;;
11439;SDS011;5776;51.814;4.510;2023-06-22T08:59:46;5.90;;;2.90;;
11439;SDS011;5776;51.814;4.510;2023-06-22T09:02:12;5.65;;;2.47;;
11439;SDS011;5776;51.814;4.510;2023-06-22T09:04:38;6.75;;;3.20;;
11439;SDS011;5776;51.814;4.510;2023-06-22T09:07:04;5.40;;;3.65;;
11439;SDS011;5776;51.814;4.510;2023-06-22T09:09:30;7.50;;;5.05;;
11439;SDS011;5776;51.814;4.510;2023-06-22T09:11:56;7.57;;;4.43;;
11439;SDS011;5776;51.814;4.510;2023-06-22T09:14:22;11.48;;;6.63;;
11439;SDS011;5776;51.814;4.510;2023-06-22T09:16:48;9.88;;;5.50;;
11439;SDS011;5776;51.814;4.510;2023-06-22T09:19:14;8.02;;;5.07;;
11439;SDS011;5776;51.814;4.510;2023-06-22T09:21:39;5.50;;;3.70;;
11439;SDS011;5776;51.814;4.510;2023-06-22T09:24:05;7.03;;;4.18;;
11439;SDS011;5776;51.814;4.510;2023-06-22T09:26:31;11.43;;;6.85;;
11439;SDS011;5776;51.814;4.510;2023-06-22T09:28:57;10.70;;;7.28;;
11439;SDS011;5776;51.814;4.510;2023-06-22T09:31:23;10.10;;;6.15;;
11439;SDS011;5776;51.814;4.510;2023-06-22T09:33:55;7.55;;;5.30;;
11439;SDS011;5776;51.814;4.510;2023-06-22T09:36:21;9.93;;;7.15;;
11439;SDS011;5776;51.814;4.510;2023-06-22T09:38:47;16.70;;;9.27;;
11439;SDS011;5776;51.814;4.510;2023-06-22T09:41:14;14.00;;;7.95;;
11439;SDS011;5776;51.814;4.510;2023-06-22T09:43:41;9.40;;;6.45;;
11439;SDS011;5776;51.814;4.510;2023-06-22T09:46:06;9.80;;;6.93;;
11439;SDS011;5776;51.814;4.510;2023-06-22T09:48:34;13.50;;;8.93;;
11439;SDS011;5776;51.814;4.510;2023-06-22T09:51:00;13.50;;;8.43;;
11439;SDS011;5776;51.814;4.510;2023-06-22T09:53:26;14.23;;;7.22;;
11439;SDS011;5776;51.814;4.510;2023-06-22T09:55:53;11.60;;;7.75;;
11439;SDS011;5776;51.814;4.510;2023-06-22T09:58:19;11.55;;;8.15;;
11439;SDS011;5776;51.814;4.510;2023-06-22T10:00:44;9.95;;;6.10;;
11439;SDS011;5776;51.814;4.510;2023-06-22T10:03:10;10.80;;;7.05;;
11439;SDS011;5776;51.814;4.510;2023-06-22T10:05:36;14.75;;;7.80;;
11439;SDS011;5776;51.814;4.510;2023-06-22T10:08:02;11.60;;;6.55;;
11439;SDS011;5776;51.814;4.510;2023-06-22T10:10:28;14.40;;;9.07;;
11439;SDS011;5776;51.814;4.510;2023-06-22T10:12:55;9.35;;;6.63;;
11439;SDS011;5776;51.814;4.510;2023-06-22T10:15:23;15.77;;;10.52;;
11439;SDS011;5776;51.814;4.510;2023-06-22T10:17:49;12.57;;;8.32;;
11439;SDS011;5776;51.814;4.510;2023-06-22T10:20:15;11.20;;;6.97;;
11439;SDS011;5776;51.814;4.510;2023-06-22T10:22:43;7.60;;;4.47;;
11439;SDS011;5776;51.814;4.510;2023-06-22T10:25:11;10.13;;;7.63;;
11439;SDS011;5776;51.814;4.510;2023-06-22T10:27:38;11.80;;;9.00;;
11439;SDS011;5776;51.814;4.510;2023-06-22T10:30:08;10.63;;;7.78;;
11439;SDS011;5776;51.814;4.510;2023-06-22T10:32:37;14.23;;;8.98;;
11439;SDS011;5776;51.814;4.510;2023-06-22T10:35:04;13.27;;;8.57;;
11439;SDS011;5776;51.814;4.510;2023-06-22T10:37:30;8.50;;;6.13;;
11439;SDS011;5776;51.814;4.510;2023-06-22T10:39:56;10.15;;;6.95;;
11439;SDS011;5776;51.814;4.510;2023-06-22T10:42:22;12.18;;;8.60;;
11439;SDS011;5776;51.814;4.510;2023-06-22T10:44:48;14.35;;;9.45;;
11439;SDS011;5776;51.814;4.510;2023-06-22T10:47:14;12.10;;;8.40;;
11439;SDS011;5776;51.814;4.510;2023-06-22T10:49:40;9.07;;;5.47;;
11439;SDS011;5776;51.814;4.510;2023-06-22T10:52:07;11.70;;;7.82;;
11439;SDS011;5776;51.814;4.510;2023-06-22T10:54:34;8.85;;;7.05;;
11439;SDS011;5776;51.814;4.510;2023-06-22T10:57:00;13.07;;;8.50;;
11439;SDS011;5776;51.814;4.510;2023-06-22T10:59:27;15.65;;;8.57;;
11439;SDS011;5776;51.814;4.510;2023-06-22T11:01:55;7.82;;;5.35;;
11439;SDS011;5776;51.814;4.510;2023-06-22T11:04:21;10.02;;;6.20;;
11439;SDS011;5776;51.814;4.510;2023-06-22T11:06:47;11.32;;;5.50;;
11439;SDS011;5776;51.814;4.510;2023-06-22T11:09:14;8.40;;;5.63;;
11439;SDS011;5776;51.814;4.510;2023-06-22T11:11:46;10.82;;;6.82;;
11439;SDS011;5776;51.814;4.510;2023-06-22T11:14:13;8.68;;;5.72;;
11439;SDS011;5776;51.814;4.510;2023-06-22T11:16:39;8.27;;;5.82;;
11439;SDS011;5776;51.814;4.510;2023-06-22T11:19:04;8.90;;;6.57;;
11439;SDS011;5776;51.814;4.510;2023-06-22T11:21:31;5.22;;;3.85;;
11439;SDS011;5776;51.814;4.510;2023-06-22T11:23:57;7.10;;;4.93;;
11439;SDS011;5776;51.814;4.510;2023-06-22T11:26:24;6.10;;;4.00;;
11439;SDS011;5776;51.814;4.510;2023-06-22T11:28:52;9.95;;;7.50;;
11439;SDS011;5776;51.814;4.510;2023-06-22T11:31:19;15.30;;;9.18;;
11439;SDS011;5776;51.814;4.510;2023-06-22T11:33:45;10.52;;;6.90;;
11439;SDS011;5776;51.814;4.510;2023-06-22T11:36:12;10.07;;;5.63;;
11439;SDS011;5776;51.814;4.510;2023-06-22T11:38:38;9.27;;;6.57;;
11439;SDS011;5776;51.814;4.510;2023-06-22T11:41:08;10.90;;;7.95;;
11439;SDS011;5776;51.814;4.510;2023-06-22T11:43:34;14.40;;;8.90;;
11439;SDS011;5776;51.814;4.510;2023-06-22T11:46:02;13.10;;;8.93;;
11439;SDS011;5776;51.814;4.510;2023-06-22T11:48:29;12.10;;;9.25;;
11439;SDS011;5776;51.814;4.510;2023-06-22T11:50:54;12.88;;;7.85;;
11439;SDS011;5776;51.814;4.510;2023-06-22T11:53:24;13.98;;;8.85;;
11439;SDS011;5776;51.814;4.510;2023-06-22T11:55:50;13.23;;;7.65;;
11439;SDS011;5776;51.814;4.510;2023-06-22T11:58:17;10.07;;;8.45;;
11439;SDS011;5776;51.814;4.510;2023-06-22T12:00:43;14.13;;;9.73;;
11439;SDS011;5776;51.814;4.510;2023-06-22T12:03:09;10.05;;;7.15;;
11439;SDS011;5776;51.814;4.510;2023-06-22T12:05:35;8.27;;;5.97;;
11439;SDS011;5776;51.814;4.510;2023-06-22T12:08:01;12.80;;;7.38;;
11439;SDS011;5776;51.814;4.510;2023-06-22T12:10:26;7.00;;;4.88;;
11439;SDS011;5776;51.814;4.510;2023-06-22T12:12:55;12.95;;;8.27;;
11439;SDS011;5776;51.814;4.510;2023-06-22T12:15:23;8.65;;;5.68;;
11439;SDS011;5776;51.814;4.510;2023-06-22T12:17:49;8.90;;;6.57;;
11439;SDS011;5776;51.814;4.510;2023-06-22T12:20:15;10.43;;;7.35;;
11439;SDS011;5776;51.814;4.510;2023-06-22T12:22:41;6.43;;;4.22;;
11439;SDS011;5776;51.814;4.510;2023-06-22T12:25:08;5.28;;;3.30;;
11439;SDS011;5776;51.814;4.510;2023-06-22T12:27:37;8.10;;;6.30;;
11439;SDS011;5776;51.814;4.510;2023-06-22T12:30:05;5.28;;;3.78;;
11439;SDS011;5776;51.814;4.510;2023-06-22T12:32:30;7.00;;;5.78;;
11439;SDS011;5776;51.814;4.510;2023-06-22T12:34:57;9.60;;;6.85;;
11439;SDS011;5776;51.814;4.510;2023-06-22T12:37:23;6.18;;;4.88;;
11439;SDS011;5776;51.814;4.510;2023-06-22T12:39:49;7.28;;;3.97;;
11439;SDS011;5776;51.814;4.510;2023-06-22T12:42:15;9.90;;;7.30;;
11439;SDS011;5776;51.814;4.510;2023-06-22T12:44:42;8.10;;;6.53;;
11439;SDS011;5776;51.814;4.510;2023-06-22T12:47:08;7.70;;;5.22;;
11439;SDS011;5776;51.814;4.510;2023-06-22T12:49:37;13.75;;;7.88;;
11439;SDS011;5776;51.814;4.510;2023-06-22T12:52:04;12.25;;;7.18;;
11439;SDS011;5776;51.814;4.510;2023-06-22T12:54:35;9.60;;;5.78;;
11439;SDS011;5776;51.814;4.510;2023-06-22T12:57:01;11.40;;;7.97;;
11439;SDS011;5776;51.814;4.510;2023-06-22T12:59:27;8.93;;;5.13;;
11439;SDS011;5776;51.814;4.510;2023-06-22T13:01:53;9.98;;;7.40;;
11439;SDS011;5776;51.814;4.510;2023-06-22T13:04:20;12.82;;;7.90;;
11439;SDS011;5776;51.814;4.510;2023-06-22T13:06:46;18.60;;;10.75;;
11439;SDS011;5776;51.814;4.510;2023-06-22T13:09:17;8.85;;;5.88;;
11439;SDS011;5776;51.814;4.510;2023-06-22T13:11:44;15.55;;;11.75;;
11439;SDS011;5776;51.814;4.510;2023-06-22T13:14:09;10.95;;;7.07;;
11439;SDS011;5776;51.814;4.510;2023-06-22T13:16:36;16.13;;;11.95;;
11439;SDS011;5776;51.814;4.510;2023-06-22T13:19:01;18.20;;;12.35;;
11439;SDS011;5776;51.814;4.510;2023-06-22T13:21:28;16.13;;;11.95;;
11439;SDS011;5776;51.814;4.510;2023-06-22T13:23:53;8.50;;;6.05;;
11439;SDS011;5776;51.814;4.510;2023-06-22T13:26:20;15.27;;;11.13;;
11439;SDS011;5776;51.814;4.510;2023-06-22T13:28:47;16.10;;;10.95;;
11439;SDS011;5776;51.814;4.510;2023-06-22T13:31:13;15.30;;;10.65;;
11439;SDS011;5776;51.814;4.510;2023-06-22T13:33:39;16.05;;;9.80;;
11439;SDS011;5776;51.814;4.510;2023-06-22T13:36:06;19.83;;;12.68;;
11439;SDS011;5776;51.814;4.510;2023-06-22T13:38:35;17.25;;;11.52;;
11439;SDS011;5776;51.814;4.510;2023-06-22T13:41:04;16.80;;;12.25;;
11439;SDS011;5776;51.814;4.510;2023-06-22T13:43:31;14.85;;;11.10;;
11439;SDS011;5776;51.814;4.510;2023-06-22T13:45:57;17.90;;;11.90;;
11439;SDS011;5776;51.814;4.510;2023-06-22T13:48:23;18.33;;;13.48;;
11439;SDS011;5776;51.814;4.510;2023-06-22T13:50:51;18.85;;;12.07;;
11439;SDS011;5776;51.814;4.510;2023-06-22T13:53:18;19.05;;;12.50;;
11439;SDS011;5776;51.814;4.510;2023-06-22T13:55:44;13.50;;;9.13;;
11439;SDS011;5776;51.814;4.510;2023-06-22T13:58:09;18.42;;;12.70;;
11439;SDS011;5776;51.814;4.510;2023-06-22T14:00:35;12.88;;;9.13;;
11439;SDS011;5776;51.814;4.510;2023-06-22T14:03:01;17.45;;;12.57;;
11439;SDS011;5776;51.814;4.510;2023-06-22T14:05:26;14.57;;;11.23;;
11439;SDS011;5776;51.814;4.510;2023-06-22T14:07:52;14.75;;;10.30;;
11439;SDS011;5776;51.814;4.510;2023-06-22T14:10:18;18.73;;;10.95;;
11439;SDS011;5776;51.814;4.510;2023-06-22T14:12:45;17.08;;;12.00;;
11439;SDS011;5776;51.814;4.510;2023-06-22T14:15:11;18.60;;;12.23;;
11439;SDS011;5776;51.814;4.510;2023-06-22T14:17:37;16.23;;;12.50;;
11439;SDS011;5776;51.814;4.510;2023-06-22T14:20:03;14.07;;;10.98;;
11439;SDS011;5776;51.814;4.510;2023-06-22T14:22:31;11.63;;;8.57;;
11439;SDS011;5776;51.814;4.510;2023-06-22T14:24:57;17.83;;;12.65;;
11439;SDS011;5776;51.814;4.510;2023-06-22T14:27:24;19.25;;;11.55;;
11439;SDS011;5776;51.814;4.510;2023-06-22T14:29:50;11.65;;;8.85;;
11439;SDS011;5776;51.814;4.510;2023-06-22T14:32:17;12.27;;;8.57;;
11439;SDS011;5776;51.814;4.510;2023-06-22T14:34:43;16.17;;;12.43;;
11439;SDS011;5776;51.814;4.510;2023-06-22T14:37:09;15.27;;;11.32;;
11439;SDS011;5776;51.814;4.510;2023-06-22T14:39:43;19.52;;;12.52;;
11439;SDS011;5776;51.814;4.510;2023-06-22T14:42:09;12.93;;;9.20;;
11439;SDS011;5776;51.814;4.510;2023-06-22T14:44:35;17.90;;;12.88;;
11439;SDS011;5776;51.814;4.510;2023-06-22T14:47:01;14.70;;;9.93;;
11439;SDS011;5776;51.814;4.510;2023-06-22T14:49:27;16.25;;;11.70;;
11439;SDS011;5776;51.814;4.510;2023-06-22T14:51:53;16.65;;;10.93;;
11439;SDS011;5776;51.814;4.510;2023-06-22T14:54:19;14.50;;;9.32;;
11439;SDS011;5776;51.814;4.510;2023-06-22T14:56:45;17.00;;;12.60;;
11439;SDS011;5776;51.814;4.510;2023-06-22T14:59:12;18.45;;;12.63;;
11439;SDS011;5776;51.814;4.510;2023-06-22T15:01:38;17.60;;;13.05;;
11439;SDS011;5776;51.814;4.510;2023-06-22T15:04:04;19.75;;;12.88;;